createdAt,value
2022-07-26T00:01:31.910Z,22.36
2022-07-26T00:04:53.800Z,22.20
2022-07-26T00:08:15.146Z,22.40
2022-07-26T00:11:38.286Z,22.50
2022-07-26T00:15:00.595Z,22.36
2022-07-26T00:18:22.564Z,22.52
2022-07-26T00:21:43.810Z,22.25
2022-07-26T00:25:09.614Z,22.49
2022-07-26T00:28:32.566Z,22.72
2022-07-26T00:31:53.885Z,22.40
2022-07-26T00:35:15.719Z,22.71
2022-07-26T00:38:38.299Z,22.44
2022-07-26T00:41:59.655Z,22.69
2022-07-26T00:45:22.299Z,22.71
2022-07-26T00:48:43.401Z,22.62
2022-07-26T00:52:06.540Z,22.53
2022-07-26T00:55:28.651Z,22.70
2022-07-26T00:58:50.260Z,22.85
2022-07-26T01:02:13.310Z,22.52
2022-07-26T01:05:37.045Z,22.60
2022-07-26T01:08:58.094Z,22.02
2022-07-26T01:12:19.195Z,21.56
2022-07-26T01:15:40.217Z,21.71
2022-07-26T01:19:03.421Z,21.98
2022-07-26T01:22:25.976Z,21.39
2022-07-26T01:25:48.584Z,22.02
2022-07-26T01:29:10.635Z,21.93
2022-07-26T01:32:32.116Z,22.11
2022-07-26T01:35:53.834Z,21.63
2022-07-26T01:39:17.629Z,22.15
2022-07-26T01:42:40.914Z,21.81
2022-07-26T01:46:02.979Z,21.80
2022-07-26T01:49:24.302Z,21.95
2022-07-26T01:52:46.183Z,21.68
2022-07-26T01:56:09.077Z,21.41
2022-07-26T01:59:30.079Z,21.67
2022-07-26T02:02:54.634Z,21.38
2022-07-26T02:06:16.111Z,21.20
2022-07-26T02:09:38.157Z,21.46
2022-07-26T02:13:02.439Z,21.48
2022-07-26T02:16:24.941Z,21.24
2022-07-26T02:19:46.455Z,21.43
2022-07-26T02:23:07.827Z,21.19
2022-07-26T02:26:29.194Z,21.64
2022-07-26T02:29:51.858Z,21.40
2022-07-26T02:33:13.113Z,21.29
2022-07-26T02:36:34.921Z,21.47
2022-07-26T02:39:56.404Z,21.32
2022-07-26T02:43:17.549Z,21.32
2022-07-26T02:46:40.511Z,21.33
2022-07-26T02:50:01.759Z,21.22
2022-07-26T02:53:22.776Z,21.27
2022-07-26T02:56:44.208Z,21.05
2022-07-26T03:00:07.290Z,21.08
2022-07-26T03:03:29.884Z,20.99
2022-07-26T03:06:52.216Z,20.98
2022-07-26T03:10:13.303Z,21.36
2022-07-26T03:13:35.004Z,21.64
2022-07-26T03:16:56.319Z,21.59
2022-07-26T03:20:18.833Z,20.94
2022-07-26T03:23:40.270Z,21.50
2022-07-26T03:27:02.127Z,21.21
2022-07-26T03:30:24.735Z,21.32
2022-07-26T03:33:47.707Z,21.10
2022-07-26T03:37:10.228Z,21.23
2022-07-26T03:40:31.725Z,21.13
2022-07-26T03:43:52.741Z,21.41
2022-07-26T03:47:15.191Z,21.49
2022-07-26T03:50:36.886Z,21.46
2022-07-26T03:53:59.801Z,21.21
2022-07-26T03:57:21.098Z,21.31
2022-07-26T04:00:42.293Z,21.34
2022-07-26T04:04:04.948Z,20.97
2022-07-26T04:07:27.341Z,21.13
2022-07-26T04:10:51.203Z,21.21
2022-07-26T04:14:13.310Z,21.13
2022-07-26T04:17:38.616Z,21.17
2022-07-26T04:21:00.034Z,21.22
2022-07-26T04:24:21.356Z,20.86
2022-07-26T04:27:48.789Z,20.93
2022-07-26T04:31:11.053Z,20.79
2022-07-26T04:34:32.925Z,20.84
2022-07-26T04:37:54.439Z,20.85
2022-07-26T04:41:15.915Z,20.67
2022-07-26T04:44:38.973Z,20.80
2022-07-26T04:48:00.074Z,20.96
2022-07-26T04:51:22.022Z,20.99
2022-07-26T04:54:43.584Z,21.08
2022-07-26T04:58:05.349Z,20.89
2022-07-26T05:01:28.465Z,21.09
2022-07-26T05:04:49.961Z,21.18
2022-07-26T05:08:11.815Z,21.00
2022-07-26T05:11:33.562Z,21.08
2022-07-26T05:14:54.582Z,20.91
2022-07-26T05:18:17.178Z,20.85
2022-07-26T05:21:38.826Z,21.00
2022-07-26T05:25:00.645Z,21.00
2022-07-26T05:28:22.493Z,21.55
2022-07-26T05:31:43.699Z,21.23
2022-07-26T05:35:07.437Z,21.17
2022-07-26T05:38:29.039Z,21.31
2022-07-26T05:41:50.835Z,21.53
2022-07-26T05:45:12.362Z,22.17
2022-07-26T05:48:34.045Z,22.45
2022-07-26T05:52:01.092Z,22.17
2022-07-26T05:55:23.060Z,21.98
2022-07-26T05:58:44.181Z,22.18
2022-07-26T06:02:05.541Z,22.13
2022-07-26T06:05:27.052Z,22.06
2022-07-26T06:08:51.479Z,22.31
2022-07-26T06:12:12.391Z,23.11
2022-07-26T06:15:33.577Z,23.43
2022-07-26T06:18:55.253Z,22.58
2022-07-26T06:22:16.354Z,22.76
2022-07-26T06:25:40.791Z,22.76
2022-07-26T06:29:02.147Z,22.88
2022-07-26T06:32:23.696Z,23.06
2022-07-26T06:35:44.716Z,23.22
2022-07-26T06:39:06.275Z,22.69
2022-07-26T06:42:29.066Z,22.46
2022-07-26T06:45:50.834Z,22.84
2022-07-26T06:49:12.449Z,22.55
2022-07-26T06:52:33.816Z,22.39
2022-07-26T06:55:55.554Z,22.77
2022-07-26T06:59:17.994Z,22.52
2022-07-26T07:02:40.103Z,22.15
2022-07-26T07:06:01.299Z,21.79
2022-07-26T07:09:24.071Z,21.74
2022-07-26T07:12:46.882Z,21.68
2022-07-26T07:16:10.063Z,21.84
2022-07-26T07:19:31.763Z,21.76
2022-07-26T07:22:52.778Z,22.21
2022-07-26T07:26:13.797Z,22.57
2022-07-26T07:29:35.276Z,22.01
2022-07-26T07:32:58.123Z,22.21
2022-07-26T07:36:20.702Z,22.30
2022-07-26T07:39:41.891Z,22.02
2022-07-26T07:43:04.691Z,22.00
2022-07-26T07:46:26.441Z,23.04
2022-07-26T07:49:49.001Z,22.89
2022-07-26T07:53:10.140Z,22.81
2022-07-26T07:56:32.363Z,23.83
2022-07-26T07:59:53.628Z,23.99
2022-07-26T08:03:18.659Z,23.38
2022-07-26T08:06:43.209Z,23.29
2022-07-26T08:10:12.858Z,23.56
2022-07-26T08:13:36.052Z,24.12
2022-07-26T08:16:59.013Z,24.16
2022-07-26T08:20:23.706Z,23.71
2022-07-26T08:23:48.176Z,24.65
2022-07-26T08:27:09.571Z,24.48
2022-07-26T08:30:31.300Z,24.75
2022-07-26T08:33:53.813Z,24.05
2022-07-26T08:37:17.760Z,24.45
2022-07-26T08:40:41.159Z,24.37
2022-07-26T08:44:07.036Z,25.03
2022-07-26T08:47:37.681Z,24.23
2022-07-26T08:51:10.987Z,23.72
2022-07-26T08:54:32.644Z,23.25
2022-07-26T08:57:55.670Z,23.56
2022-07-26T09:01:18.970Z,23.79
2022-07-26T09:04:44.760Z,24.01
2022-07-26T09:08:24.375Z,23.99
2022-07-26T09:11:45.287Z,23.86
2022-07-26T09:15:20.112Z,23.50
2022-07-26T09:18:41.586Z,23.67
2022-07-26T09:22:10.464Z,24.39
2022-07-26T09:25:34.253Z,23.91
2022-07-26T09:29:11.004Z,23.95
2022-07-26T09:32:34.228Z,23.36
2022-07-26T09:36:03.418Z,21.69
2022-07-26T09:39:34.062Z,21.07
2022-07-26T09:42:57.833Z,20.36
2022-07-26T09:46:22.559Z,20.25
2022-07-26T09:49:45.678Z,20.14
2022-07-26T09:53:08.970Z,20.25
2022-07-26T09:56:43.615Z,20.06
2022-07-26T10:00:07.779Z,20.58
2022-07-26T10:03:33.426Z,21.76
2022-07-26T10:06:58.772Z,21.43
2022-07-26T10:10:24.879Z,21.86
2022-07-26T10:24:43.643Z,21.24
2022-07-26T10:29:07.416Z,21.73
2022-07-26T10:48:18.966Z,23.70
2022-07-26T10:52:23.553Z,24.36
2022-07-26T10:56:41.897Z,24.81
2022-07-26T11:01:04.438Z,25.01
2022-07-26T11:18:13.730Z,23.26
2022-07-26T11:21:36.378Z,22.25
2022-07-26T11:24:57.399Z,22.18
2022-07-26T11:28:18.491Z,21.64
2022-07-26T11:31:50.582Z,22.54
2022-07-26T11:35:30.020Z,21.90
2022-07-26T11:38:54.724Z,22.09
2022-07-26T11:42:19.462Z,21.76
2022-07-26T11:45:44.088Z,22.11
2022-07-26T11:49:13.654Z,22.46
2022-07-26T11:52:35.175Z,22.02
2022-07-26T11:56:10.995Z,22.45
2022-07-26T11:59:34.096Z,23.02
2022-07-26T12:02:56.131Z,22.84
2022-07-26T12:06:19.106Z,23.22
2022-07-26T12:09:48.165Z,22.90
2022-07-26T12:13:14.350Z,22.64
2022-07-26T12:16:40.885Z,22.71
2022-07-26T12:20:11.803Z,22.72
2022-07-26T12:23:42.321Z,21.97
2022-07-26T12:27:08.695Z,22.53
2022-07-26T12:30:36.710Z,22.48
2022-07-26T12:33:58.779Z,22.33
2022-07-26T12:37:20.395Z,22.58
2022-07-26T12:40:43.404Z,22.99
2022-07-26T12:44:05.591Z,22.87
2022-07-26T12:47:28.881Z,23.19
2022-07-26T12:50:50.106Z,23.04
2022-07-26T12:54:12.509Z,23.40
2022-07-26T12:57:34.152Z,22.99
2022-07-26T13:00:58.756Z,23.53
2022-07-26T13:04:21.689Z,24.08
2022-07-26T13:07:43.584Z,24.54
2022-07-26T13:11:04.739Z,24.35
2022-07-26T13:14:25.960Z,24.17
2022-07-26T13:17:47.000Z,23.63
2022-07-26T13:21:09.448Z,23.36
2022-07-26T13:24:31.575Z,23.14
2022-07-26T13:27:53.836Z,22.85
2022-07-26T13:31:16.315Z,23.16
2022-07-26T13:34:37.769Z,22.59
2022-07-26T13:38:00.085Z,22.87
2022-07-26T13:41:21.102Z,23.04
2022-07-26T13:44:42.638Z,23.14
2022-07-26T13:48:04.266Z,22.84
2022-07-26T13:51:46.863Z,22.18
2022-07-26T13:55:10.424Z,22.73
2022-07-26T13:58:32.546Z,22.98
2022-07-26T14:01:55.350Z,22.81
2022-07-26T14:05:16.747Z,23.12
2022-07-26T14:08:37.773Z,23.09
2022-07-26T14:12:01.345Z,23.60
2022-07-26T14:15:23.570Z,23.43
2022-07-26T14:18:45.100Z,23.18
2022-07-26T14:22:08.086Z,23.46
2022-07-26T14:25:30.258Z,23.55
2022-07-26T14:28:56.440Z,23.71
2022-07-26T14:32:21.805Z,23.90
2022-07-26T14:35:44.824Z,23.58
2022-07-26T14:39:06.240Z,23.49
2022-07-26T14:42:27.545Z,23.39
2022-07-26T14:45:50.423Z,23.16
2022-07-26T14:49:12.189Z,22.38
2022-07-26T14:52:33.950Z,22.58
2022-07-26T14:55:55.502Z,22.83
2022-07-26T14:59:16.917Z,22.80
2022-07-26T15:02:41.203Z,22.79
2022-07-26T15:06:02.945Z,23.25
2022-07-26T15:09:23.876Z,22.99
2022-07-26T15:12:45.390Z,23.12
2022-07-26T15:16:06.957Z,23.19
2022-07-26T15:19:33.218Z,23.36
2022-07-26T15:22:56.929Z,23.19
2022-07-26T15:26:18.551Z,23.21
2022-07-26T15:29:40.110Z,23.14
2022-07-26T15:33:04.511Z,22.97
2022-07-26T15:36:27.344Z,23.32
2022-07-26T15:39:49.767Z,23.47
2022-07-26T15:43:13.204Z,23.59
2022-07-26T15:46:37.341Z,23.55
2022-07-26T15:49:59.878Z,23.57
2022-07-26T15:53:25.431Z,23.82
2022-07-26T15:56:48.266Z,24.45
2022-07-26T16:00:12.256Z,23.89
2022-07-26T16:03:36.203Z,23.56
2022-07-26T16:06:59.293Z,23.00
2022-07-26T16:10:22.390Z,23.43
2022-07-26T16:13:44.108Z,23.19
2022-07-26T16:17:05.324Z,23.23
2022-07-26T16:20:26.585Z,23.24
2022-07-26T16:23:48.281Z,23.17
2022-07-26T16:27:11.197Z,23.05
2022-07-26T16:30:33.024Z,23.03
2022-07-26T16:33:54.911Z,22.52
2022-07-26T16:37:16.182Z,22.58
2022-07-26T16:40:37.298Z,22.77
2022-07-26T16:44:01.933Z,22.67
2022-07-26T16:47:23.987Z,22.70
2022-07-26T16:50:46.402Z,22.54
2022-07-26T16:54:07.488Z,22.57
2022-07-26T16:57:29.142Z,22.39
2022-07-26T17:00:52.068Z,22.44
2022-07-26T17:04:16.543Z,22.16
2022-07-26T17:07:38.316Z,22.23
2022-07-26T17:11:00.041Z,22.34
2022-07-26T17:14:21.901Z,22.49
2022-07-26T17:17:48.517Z,22.58
2022-07-26T17:21:11.726Z,22.89
2022-07-26T17:24:33.803Z,22.75
2022-07-26T17:27:56.206Z,22.46
2022-07-26T17:31:17.671Z,22.30
2022-07-26T17:34:41.928Z,22.50
2022-07-26T17:38:07.394Z,22.18
2022-07-26T17:41:33.012Z,22.22
2022-07-26T17:44:56.340Z,22.29
2022-07-26T17:48:24.877Z,22.24
2022-07-26T17:51:55.654Z,22.38
2022-07-26T17:55:18.286Z,21.79
2022-07-26T17:58:42.439Z,21.75
2022-07-26T18:02:04.834Z,21.91
2022-07-26T18:05:33.947Z,21.64
2022-07-26T18:08:58.409Z,21.77
2022-07-26T18:12:21.044Z,21.71
2022-07-26T18:15:43.131Z,21.61
2022-07-26T18:19:04.972Z,21.86
2022-07-26T18:22:27.423Z,21.94
2022-07-26T18:25:50.325Z,21.73
2022-07-26T18:29:12.884Z,21.65
2022-07-26T18:32:35.065Z,21.64
2022-07-26T18:36:00.849Z,21.94
2022-07-26T18:39:23.184Z,21.43
2022-07-26T18:42:45.916Z,21.33
2022-07-26T18:46:09.407Z,21.70
2022-07-26T18:49:32.443Z,21.54
2022-07-26T18:52:54.160Z,21.55
2022-07-26T18:56:15.764Z,21.64
2022-07-26T18:59:39.646Z,21.42
2022-07-26T19:03:01.153Z,21.33
2022-07-26T19:06:26.708Z,21.46
2022-07-26T19:09:49.289Z,21.27
2022-07-26T19:13:12.914Z,21.33
2022-07-26T19:16:36.793Z,21.18
2022-07-26T19:19:58.482Z,21.35
2022-07-26T19:23:20.171Z,21.19
2022-07-26T19:26:48.128Z,21.11
2022-07-26T19:30:16.569Z,21.07
2022-07-26T19:33:40.062Z,20.84
2022-07-26T19:37:01.689Z,20.83
2022-07-26T19:40:23.982Z,21.00
2022-07-26T19:43:45.561Z,21.23
2022-07-26T19:47:06.600Z,20.90
2022-07-26T19:50:35.310Z,20.99
2022-07-26T19:54:00.829Z,20.82
2022-07-26T19:57:29.469Z,20.91
2022-07-26T20:00:51.122Z,20.42
2022-07-26T20:04:12.602Z,20.56
2022-07-26T20:07:37.261Z,20.49
2022-07-26T20:10:59.279Z,20.28
2022-07-26T20:14:22.895Z,20.43
2022-07-26T20:17:44.318Z,20.57
2022-07-26T20:21:05.848Z,20.16
2022-07-26T20:24:28.664Z,20.61
2022-07-26T20:27:51.460Z,20.55
2022-07-26T20:31:15.784Z,20.88
2022-07-26T20:34:37.270Z,20.54
2022-07-26T20:38:18.137Z,20.66
2022-07-26T20:41:45.815Z,20.52
2022-07-26T20:45:11.156Z,20.52
2022-07-26T20:48:33.874Z,20.37
2022-07-26T20:51:55.052Z,20.04
2022-07-26T20:55:18.829Z,20.06
2022-07-26T20:58:43.286Z,20.17
2022-07-26T21:02:06.085Z,20.24
2022-07-26T21:05:32.159Z,20.06
2022-07-26T21:08:53.562Z,20.07
2022-07-26T21:12:21.637Z,20.43
2022-07-26T21:15:44.017Z,19.97
2022-07-26T21:19:06.327Z,19.71
2022-07-26T21:22:29.700Z,19.68
2022-07-26T21:25:57.902Z,20.00
2022-07-26T21:29:22.057Z,19.78
2022-07-26T21:32:45.607Z,19.83
2022-07-26T21:36:07.111Z,19.27
2022-07-26T21:39:28.418Z,19.35
2022-07-26T21:42:52.005Z,19.47
2022-07-26T21:46:13.891Z,19.20
2022-07-26T21:49:38.659Z,19.16
2022-07-26T21:53:01.110Z,19.17
2022-07-26T21:56:22.551Z,19.19
2022-07-26T21:59:43.714Z,18.97
2022-07-26T22:03:05.193Z,18.79
2022-07-26T22:06:27.379Z,18.79
2022-07-26T22:09:49.421Z,18.77
2022-07-26T22:13:10.985Z,18.91
2022-07-26T22:16:32.158Z,18.75
2022-07-26T22:19:53.377Z,18.77
2022-07-26T22:23:19.961Z,18.85
2022-07-26T22:26:42.845Z,18.79
2022-07-26T22:30:05.046Z,19.24
2022-07-26T22:33:26.674Z,19.10
2022-07-26T22:36:48.299Z,19.03
2022-07-26T22:40:13.112Z,19.39
2022-07-26T22:43:35.265Z,18.98
2022-07-26T22:46:56.731Z,18.78
2022-07-26T22:50:18.732Z,18.75
2022-07-26T22:53:40.303Z,18.68
2022-07-26T22:57:02.954Z,19.06
2022-07-26T23:00:24.265Z,18.87
2022-07-26T23:03:49.797Z,18.86
2022-07-26T23:07:11.999Z,18.73
2022-07-26T23:10:33.961Z,18.66
2022-07-26T23:13:58.774Z,18.58
2022-07-26T23:17:20.944Z,18.39
2022-07-26T23:20:43.108Z,18.37
2022-07-26T23:24:04.377Z,18.43
2022-07-26T23:27:25.787Z,18.47
2022-07-26T23:30:48.192Z,18.48
2022-07-26T23:34:09.357Z,18.06
2022-07-26T23:37:30.827Z,18.27
2022-07-26T23:40:52.423Z,18.08
2022-07-26T23:44:13.978Z,18.23
2022-07-26T23:47:36.874Z,18.23
2022-07-26T23:50:58.092Z,17.75
2022-07-26T23:54:19.481Z,17.94
2022-07-26T23:57:41.313Z,17.87
